createdAt,value
2019-02-17T00:02:26.121Z,101817.03
2019-02-17T00:04:57.726Z,101817.91
2019-02-17T00:07:29.344Z,101820.15
2019-02-17T00:10:01.507Z,101813.91
2019-02-17T00:12:33.062Z,101815.22
2019-02-17T00:15:06.885Z,101813.89
2019-02-17T00:17:38.531Z,101825.03
2019-02-17T00:20:10.157Z,101814.36
2019-02-17T00:22:41.773Z,101809.44
2019-02-17T00:25:13.321Z,101808.56
2019-02-17T00:27:44.842Z,101804.99
2019-02-17T00:30:16.354Z,101804.99
2019-02-17T00:32:47.928Z,101804.10
2019-02-17T00:35:19.618Z,101804.53
2019-02-17T00:37:51.192Z,101797.85
2019-02-17T00:40:22.821Z,101808.10
2019-02-17T00:42:54.358Z,101800.98
2019-02-17T00:45:25.960Z,101809.00
2019-02-17T00:47:57.523Z,101806.33
2019-02-17T00:50:29.051Z,101805.88
2019-02-17T00:53:00.630Z,101802.31
2019-02-17T00:55:32.177Z,101804.56
2019-02-17T00:58:06.654Z,101800.09
2019-02-17T01:00:38.263Z,101794.77
2019-02-17T01:03:09.866Z,101794.32
2019-02-17T01:05:42.635Z,101794.77
2019-02-17T01:08:14.237Z,101794.31
2019-02-17T01:10:45.790Z,101798.31
2019-02-17T01:13:17.299Z,101807.66
2019-02-17T01:15:48.885Z,101805.40
2019-02-17T01:18:20.444Z,101809.42
2019-02-17T01:20:53.027Z,101816.98
2019-02-17T01:23:24.567Z,101814.31
2019-02-17T01:25:56.100Z,101819.20
2019-02-17T01:28:27.635Z,101815.23
2019-02-17T01:30:59.160Z,101809.89
2019-02-17T01:33:30.707Z,101807.66
2019-02-17T01:36:02.302Z,101805.88
2019-02-17T01:38:33.878Z,101806.77
2019-02-17T01:41:05.612Z,101809.44
2019-02-17T01:43:37.228Z,101813.45
2019-02-17T01:46:08.876Z,101813.02
2019-02-17T01:48:40.460Z,101811.66
2019-02-17T01:51:12.089Z,101810.31
2019-02-17T01:53:43.678Z,101818.36
2019-02-17T01:56:15.289Z,101822.33
2019-02-17T01:58:46.951Z,101827.69
2019-02-17T02:01:18.625Z,101821.00
2019-02-17T02:03:50.129Z,101822.33
2019-02-17T02:06:22.634Z,101817.01
2019-02-17T02:08:54.143Z,101815.69
2019-02-17T02:11:25.745Z,101819.68
2019-02-17T02:13:57.359Z,101817.45
2019-02-17T02:16:28.936Z,101818.81
2019-02-17T02:19:00.994Z,101809.44
2019-02-17T02:21:32.512Z,101816.58
2019-02-17T02:24:04.300Z,101820.14
2019-02-17T02:26:35.816Z,101817.91
2019-02-17T02:29:07.355Z,101821.04
2019-02-17T02:31:38.937Z,101818.34
2019-02-17T02:34:10.567Z,101816.14
2019-02-17T02:36:42.141Z,101817.02
2019-02-17T02:39:14.145Z,101818.78
2019-02-17T02:41:45.665Z,101820.58
2019-02-17T02:44:17.254Z,101825.52
2019-02-17T02:46:48.792Z,101822.38
2019-02-17T02:49:20.299Z,101834.41
2019-02-17T02:51:51.876Z,101828.58
2019-02-17T02:54:23.395Z,101832.15
2019-02-17T02:56:54.921Z,101830.38
2019-02-17T02:59:26.500Z,101838.41
2019-02-17T03:01:58.100Z,101840.17
2019-02-17T03:04:29.750Z,101844.61
2019-02-17T03:07:01.818Z,101846.84
2019-02-17T03:09:33.461Z,101845.52
2019-02-17T03:12:05.045Z,101854.41
2019-02-17T03:14:36.657Z,101856.59
2019-02-17T03:17:08.207Z,101857.00
2019-02-17T03:19:39.728Z,101852.55
2019-02-17T03:22:11.272Z,101867.69
2019-02-17T03:24:42.936Z,101856.97
2019-02-17T03:27:14.605Z,101860.05
2019-02-17T03:29:46.169Z,101861.36
2019-02-17T03:32:17.769Z,101855.11
2019-02-17T03:34:49.398Z,101867.95
2019-02-17T03:37:20.951Z,101861.69
2019-02-17T03:39:52.579Z,101859.51
2019-02-17T03:42:24.139Z,101868.41
2019-02-17T03:44:55.891Z,101876.39
2019-02-17T03:47:27.644Z,101873.67
2019-02-17T03:49:59.182Z,101877.18
2019-02-17T03:52:30.800Z,101872.72
2019-02-17T03:55:02.328Z,101871.78
2019-02-17T03:57:33.910Z,101870.92
2019-02-17T04:00:16.400Z,101871.39
2019-02-17T04:02:41.403Z,101877.62
2019-02-17T04:05:13.016Z,101883.38
2019-02-17T04:07:44.553Z,101885.98
2019-02-17T04:10:16.068Z,101882.86
2019-02-17T04:12:47.677Z,101892.21
2019-02-17T04:15:19.355Z,101892.58
2019-02-17T04:17:50.946Z,101889.45
2019-02-17T04:20:22.566Z,101891.70
2019-02-17T04:22:54.091Z,101886.80
2019-02-17T04:25:25.811Z,101877.02
2019-02-17T04:27:57.359Z,101886.36
2019-02-17T04:30:29.817Z,101879.69
2019-02-17T04:33:01.653Z,101870.83
2019-02-17T04:35:33.164Z,101879.31
2019-02-17T04:38:04.704Z,101874.80
2019-02-17T04:40:36.241Z,101876.07
2019-02-17T04:43:07.813Z,101881.77
2019-02-17T04:45:39.522Z,101874.20
2019-02-17T04:48:11.221Z,101876.75
2019-02-17T04:50:42.820Z,101870.11
2019-02-17T04:53:14.347Z,101875.47
2019-02-17T04:55:45.865Z,101879.09
2019-02-17T04:58:17.473Z,101882.12
2019-02-17T05:00:49.998Z,101882.02
2019-02-17T05:03:21.991Z,101890.82
2019-02-17T05:05:53.665Z,101884.48
2019-02-17T05:08:25.197Z,101886.25
2019-02-17T05:10:56.811Z,101886.25
2019-02-17T05:13:28.401Z,101885.38
2019-02-17T05:15:59.921Z,101897.42
2019-02-17T05:18:31.441Z,101897.87
2019-02-17T05:21:02.973Z,101892.95
2019-02-17T05:23:34.598Z,101901.44
2019-02-17T05:26:06.234Z,101897.87
2019-02-17T05:28:37.817Z,101897.47
2019-02-17T05:31:09.554Z,101902.81
2019-02-17T05:33:41.081Z,101907.19
2019-02-17T05:36:12.624Z,101904.03
2019-02-17T05:38:44.202Z,101908.02
2019-02-17T05:41:15.808Z,101907.53
2019-02-17T05:43:47.339Z,101908.33
2019-02-17T05:46:18.869Z,101911.34
2019-02-17T05:48:50.526Z,101914.97
2019-02-17T05:51:22.052Z,101917.13
2019-02-17T05:53:53.571Z,101914.00
2019-02-17T05:56:25.070Z,101917.20
2019-02-17T05:58:56.586Z,101923.05
2019-02-17T06:01:28.112Z,101927.05
2019-02-17T06:03:59.621Z,101930.43
2019-02-17T06:06:31.141Z,101932.25
2019-02-17T06:09:03.100Z,101932.30
2019-02-17T06:11:34.619Z,101938.07
2019-02-17T06:14:06.130Z,101932.31
2019-02-17T06:16:37.654Z,101944.83
2019-02-17T06:19:09.155Z,101948.42
2019-02-17T06:21:40.669Z,101949.83
2019-02-17T06:24:12.222Z,101962.27
2019-02-17T06:26:43.807Z,101960.48
2019-02-17T06:29:15.329Z,101963.95
2019-02-17T06:31:46.855Z,101963.13
2019-02-17T06:34:18.373Z,101973.39
2019-02-17T06:36:49.912Z,101971.18
2019-02-17T06:39:21.422Z,101965.45
2019-02-17T06:41:53.025Z,101973.56
2019-02-17T06:44:24.578Z,101967.44
2019-02-17T06:46:57.375Z,101969.27
2019-02-17T06:49:28.970Z,101971.95
2019-02-17T06:52:00.484Z,101978.17
2019-02-17T06:54:31.982Z,101977.67
2019-02-17T06:57:05.139Z,101975.03
2019-02-17T06:59:36.660Z,101975.59
2019-02-17T07:02:08.147Z,101978.36
2019-02-17T07:04:57.008Z,101975.77
2019-02-17T07:07:29.075Z,101979.86
2019-02-17T07:10:00.687Z,101981.27
2019-02-17T07:12:32.206Z,101988.83
2019-02-17T07:15:04.561Z,101993.27
2019-02-17T07:17:36.074Z,101990.23
2019-02-17T07:20:09.651Z,101982.33
2019-02-17T07:22:40.824Z,101984.62
2019-02-17T07:25:12.406Z,101993.08
2019-02-17T07:27:43.919Z,101989.99
2019-02-17T07:30:15.442Z,101987.86
2019-02-17T07:32:47.003Z,101990.14
2019-02-17T07:35:18.501Z,101985.29
2019-02-17T07:37:50.015Z,101990.20
2019-02-17T07:40:21.543Z,101983.56
2019-02-17T07:42:53.134Z,101984.03
2019-02-17T07:45:24.635Z,101985.39
2019-02-17T07:47:56.153Z,101988.08
2019-02-17T07:50:27.672Z,101992.60
2019-02-17T07:52:59.202Z,101985.91
2019-02-17T07:55:30.729Z,101985.92
2019-02-17T07:58:02.319Z,101981.00
2019-02-17T08:00:33.836Z,101981.02
2019-02-17T08:03:05.355Z,101982.34
2019-02-17T08:05:36.862Z,101979.64
2019-02-17T08:08:08.376Z,101982.75
2019-02-17T08:10:39.894Z,101972.02
2019-02-17T08:13:11.393Z,101976.88
2019-02-17T08:15:42.912Z,101979.52
2019-02-17T08:18:14.427Z,101971.02
2019-02-17T08:20:45.953Z,101976.32
2019-02-17T08:23:17.466Z,101972.25
2019-02-17T08:25:48.988Z,101978.89
2019-02-17T08:28:20.487Z,101973.46
2019-02-17T08:30:52.002Z,101966.23
2019-02-17T08:33:23.495Z,101963.47
2019-02-17T08:35:54.993Z,101965.69
2019-02-17T08:38:26.496Z,101964.30
2019-02-17T08:41:00.747Z,101962.85
2019-02-17T08:43:32.543Z,101963.66
2019-02-17T08:46:04.653Z,101964.53
2019-02-17T08:48:36.213Z,101971.17
2019-02-17T08:51:07.732Z,101963.91
2019-02-17T08:53:39.232Z,101960.19
2019-02-17T08:56:10.754Z,101958.29
2019-02-17T08:58:42.335Z,101952.44
2019-02-17T09:01:13.861Z,101953.64
2019-02-17T09:03:45.378Z,101954.51
2019-02-17T09:06:16.968Z,101952.88
2019-02-17T09:08:48.467Z,101951.48
2019-02-17T09:11:19.984Z,101948.69
2019-02-17T09:13:51.570Z,101950.39
2019-02-17T09:16:23.084Z,101957.76
2019-02-17T09:18:54.597Z,101959.29
2019-02-17T09:21:26.102Z,101949.78
2019-02-17T09:23:57.732Z,101959.06
2019-02-17T09:26:29.753Z,101961.97
2019-02-17T09:29:01.418Z,101953.49
2019-02-17T09:31:32.936Z,101951.08
2019-02-17T09:34:04.461Z,101961.69
2019-02-17T09:36:37.039Z,101964.67
2019-02-17T09:39:09.705Z,101955.37
2019-02-17T09:41:41.222Z,101965.34
2019-02-17T09:44:12.752Z,101965.11
2019-02-17T09:46:44.266Z,101966.03
2019-02-17T09:49:15.773Z,101963.72
2019-02-17T09:51:47.294Z,101973.91
2019-02-17T09:54:18.803Z,101969.18
2019-02-17T09:56:50.444Z,101969.09
2019-02-17T09:59:21.993Z,101972.05
2019-02-17T10:01:53.510Z,101976.77
2019-02-17T10:04:25.028Z,101978.30
2019-02-17T10:06:56.554Z,101980.55
2019-02-17T10:09:28.048Z,101975.76
2019-02-17T10:11:59.695Z,101970.56
2019-02-17T10:14:31.341Z,101966.56
2019-02-17T10:17:02.864Z,101970.47
2019-02-17T10:19:34.398Z,101965.40
2019-02-17T10:22:07.580Z,101954.79
2019-02-17T10:24:39.108Z,101957.33
2019-02-17T10:27:10.673Z,101956.48
2019-02-17T10:29:42.203Z,101954.88
2019-02-17T10:32:14.788Z,101959.06
2019-02-17T10:34:46.319Z,101962.13
2019-02-17T10:37:17.849Z,101955.27
2019-02-17T10:39:49.450Z,101957.82
2019-02-17T10:42:20.977Z,101954.98
2019-02-17T10:44:52.645Z,101948.81
2019-02-17T10:47:24.169Z,101946.36
2019-02-17T10:49:55.765Z,101939.66
2019-02-17T10:52:27.274Z,101943.58
2019-02-17T10:54:59.876Z,101934.95
2019-02-17T10:57:31.402Z,101932.05
2019-02-17T11:00:03.002Z,101933.39
2019-02-17T11:02:34.504Z,101933.20
2019-02-17T11:05:08.429Z,101935.52
2019-02-17T11:07:39.999Z,101931.52
2019-02-17T11:10:12.830Z,101927.63
2019-02-17T11:12:44.358Z,101927.97
2019-02-17T11:15:20.608Z,101920.22
2019-02-17T11:17:52.097Z,101922.59
2019-02-17T11:20:23.641Z,101918.23
2019-02-17T11:22:55.205Z,101918.14
2019-02-17T11:25:26.721Z,101920.84
2019-02-17T11:27:58.256Z,101919.30
2019-02-17T11:30:29.754Z,101915.88
2019-02-17T11:33:01.355Z,101914.52
2019-02-17T11:35:32.973Z,101909.79
2019-02-17T11:38:04.500Z,101904.98
2019-02-17T11:40:36.093Z,101912.44
2019-02-17T11:43:07.626Z,101914.64
2019-02-17T11:45:39.131Z,101912.22
2019-02-17T11:48:10.650Z,101907.85
2019-02-17T11:50:42.187Z,101907.27
2019-02-17T11:53:13.790Z,101900.38
2019-02-17T11:55:45.322Z,101898.43
2019-02-17T11:58:16.841Z,101901.50
2019-02-17T12:00:48.371Z,101899.67
2019-02-17T12:03:19.877Z,101902.57
2019-02-17T12:05:52.472Z,101900.69
2019-02-17T12:08:24.007Z,101898.41
2019-02-17T12:10:55.605Z,101900.41
2019-02-17T12:13:27.139Z,101895.98
2019-02-17T12:15:58.649Z,101896.12
2019-02-17T12:18:30.219Z,101888.83
2019-02-17T12:21:12.411Z,101891.21
2019-02-17T12:23:48.353Z,101887.00
2019-02-17T12:26:24.208Z,101893.31
2019-02-17T12:28:57.358Z,101887.13
2019-02-17T12:31:30.747Z,101881.69
2019-02-17T12:34:02.270Z,101882.27
2019-02-17T12:36:33.789Z,101874.96
2019-02-17T12:39:06.219Z,101869.47
2019-02-17T12:41:37.749Z,101870.15
2019-02-17T12:44:09.302Z,101870.56
2019-02-17T12:46:40.836Z,101876.16
2019-02-17T12:49:12.422Z,101879.45
2019-02-17T12:51:43.946Z,101872.86
2019-02-17T12:54:15.554Z,101869.38
2019-02-17T12:56:47.074Z,101859.68
2019-02-17T12:59:18.598Z,101852.00
2019-02-17T13:01:50.125Z,101854.77
2019-02-17T13:04:21.708Z,101853.83
2019-02-17T13:06:53.219Z,101852.58
2019-02-17T13:09:24.743Z,101854.83
2019-02-17T13:11:56.336Z,101847.49
2019-02-17T13:14:27.866Z,101854.57
2019-02-17T13:16:59.379Z,101847.03
2019-02-17T13:19:30.888Z,101845.52
2019-02-17T13:22:02.461Z,101846.45
2019-02-17T13:24:33.997Z,101845.47
2019-02-17T13:27:05.510Z,101837.26
2019-02-17T13:29:52.998Z,101834.82
2019-02-17T13:32:24.503Z,101838.16
2019-02-17T13:34:56.032Z,101835.09
2019-02-17T13:37:30.119Z,101835.58
2019-02-17T13:40:00.966Z,101838.86
2019-02-17T13:42:33.568Z,101831.53
2019-02-17T13:45:08.665Z,101832.47
2019-02-17T13:47:40.190Z,101827.47
2019-02-17T13:50:16.843Z,101821.12
2019-02-17T13:52:48.353Z,101821.75
2019-02-17T13:55:19.856Z,101825.59
2019-02-17T13:57:52.415Z,101815.48
2019-02-17T14:00:25.185Z,101821.92
2019-02-17T14:02:56.724Z,101821.05
2019-02-17T14:05:28.294Z,101820.95
2019-02-17T14:07:59.920Z,101815.38
2019-02-17T14:10:31.447Z,101810.66
2019-02-17T14:13:02.979Z,101822.23
2019-02-17T14:15:34.485Z,101821.48
2019-02-17T14:18:06.071Z,101814.05
2019-02-17T14:20:37.588Z,101819.87
2019-02-17T14:23:09.168Z,101822.06
2019-02-17T14:25:40.929Z,101815.56
2019-02-17T14:28:12.468Z,101814.62
2019-02-17T14:30:43.994Z,101817.08
2019-02-17T14:33:15.529Z,101812.36
2019-02-17T14:35:47.044Z,101818.94
2019-02-17T14:38:18.576Z,101819.41
2019-02-17T14:40:50.116Z,101814.02
2019-02-17T14:43:21.762Z,101802.53
2019-02-17T14:45:55.857Z,101799.92
2019-02-17T14:48:27.636Z,101801.92
2019-02-17T14:51:02.251Z,101804.11
2019-02-17T14:53:33.840Z,101797.72
2019-02-17T14:56:05.373Z,101796.33
2019-02-17T14:58:36.898Z,101793.92
2019-02-17T15:01:08.539Z,101792.16
2019-02-17T15:03:40.110Z,101788.91
2019-02-17T15:06:14.341Z,101799.97
2019-02-17T15:08:52.037Z,101795.41
2019-02-17T15:11:24.510Z,101793.16
2019-02-17T15:14:06.561Z,101795.73
2019-02-17T15:16:38.163Z,101790.50
2019-02-17T15:19:09.914Z,101785.06
2019-02-17T15:21:42.661Z,101789.73
2019-02-17T15:24:14.186Z,101799.85
2019-02-17T15:26:45.922Z,101796.38
2019-02-17T15:29:17.599Z,101799.98
2019-02-17T15:31:49.395Z,101791.11
2019-02-17T15:34:21.034Z,101787.60
2019-02-17T15:36:52.534Z,101788.50
2019-02-17T15:39:24.066Z,101792.14
2019-02-17T15:41:55.569Z,101793.14
2019-02-17T15:44:27.141Z,101791.89
2019-02-17T15:46:58.695Z,101789.25
2019-02-17T15:49:30.220Z,101791.50
2019-02-17T15:52:01.748Z,101788.80
2019-02-17T15:54:33.277Z,101792.92
2019-02-17T15:57:04.783Z,101788.48
2019-02-17T15:59:36.285Z,101793.14
2019-02-17T16:02:07.804Z,101789.66
2019-02-17T16:04:39.327Z,101786.22
2019-02-17T16:07:10.929Z,101783.65
2019-02-17T16:09:42.435Z,101788.76
2019-02-17T16:12:14.086Z,101795.66
2019-02-17T16:14:45.604Z,101791.41
2019-02-17T16:17:17.129Z,101802.42
2019-02-17T16:19:48.681Z,101799.36
2019-02-17T16:22:20.271Z,101793.21
2019-02-17T16:24:51.784Z,101787.99
2019-02-17T16:27:23.416Z,101790.33
2019-02-17T16:29:54.943Z,101791.34
2019-02-17T16:32:26.464Z,101800.43
2019-02-17T16:34:58.003Z,101798.83
2019-02-17T16:37:29.589Z,101800.32
2019-02-17T16:40:01.116Z,101800.49
2019-02-17T16:42:33.909Z,101810.46
2019-02-17T16:45:09.684Z,101808.80
2019-02-17T16:47:41.393Z,101807.62
2019-02-17T16:50:29.472Z,101816.36
2019-02-17T16:53:01.051Z,101815.58
2019-02-17T16:55:32.575Z,101814.80
2019-02-17T16:58:04.204Z,101818.16
2019-02-17T17:00:35.785Z,101815.67
2019-02-17T17:03:07.312Z,101824.34
2019-02-17T17:05:38.859Z,101814.59
2019-02-17T17:08:10.398Z,101822.88
2019-02-17T17:10:42.619Z,101823.14
2019-02-17T17:13:15.714Z,101825.19
2019-02-17T17:15:47.241Z,101830.88
2019-02-17T17:18:19.788Z,101823.81
2019-02-17T17:20:51.661Z,101822.98
2019-02-17T17:23:23.235Z,101824.84
2019-02-17T17:25:54.763Z,101827.90
2019-02-17T17:28:26.290Z,101826.86
2019-02-17T17:30:57.885Z,101827.27
2019-02-17T17:33:29.927Z,101825.56
2019-02-17T17:36:01.581Z,101828.87
2019-02-17T17:38:33.202Z,101836.81
2019-02-17T17:41:05.965Z,101834.20
2019-02-17T17:43:37.894Z,101834.55
2019-02-17T17:46:09.530Z,101832.78
2019-02-17T17:48:41.107Z,101831.25
2019-02-17T17:51:12.906Z,101828.12
2019-02-17T17:53:44.547Z,101826.48
2019-02-17T17:56:16.191Z,101820.45
2019-02-17T17:58:48.366Z,101819.66
2019-02-17T18:01:19.862Z,101824.52
2019-02-17T18:03:51.408Z,101825.87
2019-02-17T18:06:23.023Z,101820.49
2019-02-17T18:08:54.795Z,101823.94
2019-02-17T18:11:26.354Z,101823.44
2019-02-17T18:13:57.840Z,101831.03
2019-02-17T18:16:29.346Z,101829.69
2019-02-17T18:19:00.967Z,101823.01
2019-02-17T18:21:32.461Z,101822.10
2019-02-17T18:24:04.053Z,101826.25
2019-02-17T18:26:35.640Z,101825.82
2019-02-17T18:29:07.165Z,101828.88
2019-02-17T18:31:38.700Z,101823.08
2019-02-17T18:34:10.224Z,101821.24
2019-02-17T18:36:49.546Z,101823.55
2019-02-17T18:39:21.078Z,101828.12
2019-02-17T18:41:52.578Z,101827.33
2019-02-17T18:44:24.077Z,101825.99
2019-02-17T18:46:55.581Z,101825.61
2019-02-17T18:49:27.404Z,101823.05
2019-02-17T18:51:58.931Z,101826.80
2019-02-17T18:54:30.517Z,101823.83
2019-02-17T18:57:08.345Z,101816.30
2019-02-17T18:59:36.538Z,101822.82
2019-02-17T19:02:08.032Z,101822.34
2019-02-17T19:04:39.571Z,101823.69
2019-02-17T19:07:11.160Z,101824.55
2019-02-17T19:09:42.713Z,101825.41
2019-02-17T19:12:14.212Z,101819.66
2019-02-17T19:14:45.729Z,101824.20
2019-02-17T19:17:17.370Z,101818.45
2019-02-17T19:19:48.966Z,101817.23
2019-02-17T19:22:20.545Z,101818.53
2019-02-17T19:24:52.058Z,101819.00
2019-02-17T19:27:23.666Z,101828.35
2019-02-17T19:29:55.183Z,101819.36
2019-02-17T19:32:26.702Z,101821.13
2019-02-17T19:34:58.241Z,101822.08
2019-02-17T19:37:29.742Z,101820.27
2019-02-17T19:40:01.262Z,101818.02
2019-02-17T19:42:34.085Z,101819.78
2019-02-17T19:45:12.437Z,101813.08
2019-02-17T19:47:43.971Z,101813.99
2019-02-17T19:50:16.497Z,101816.41
2019-02-17T19:52:48.050Z,101811.55
2019-02-17T19:55:19.581Z,101813.00
2019-02-17T19:57:51.121Z,101820.17
2019-02-17T20:00:23.155Z,101819.38
2019-02-17T20:03:00.310Z,101816.72
2019-02-17T20:05:35.257Z,101821.24
2019-02-17T20:08:07.202Z,101823.52
2019-02-17T20:10:44.002Z,101817.28
2019-02-17T20:13:15.583Z,101820.44
2019-02-17T20:15:47.155Z,101816.47
2019-02-17T20:18:18.678Z,101821.83
2019-02-17T20:20:50.180Z,101821.88
2019-02-17T20:26:08.019Z,101820.19
2019-02-17T20:28:44.618Z,101816.70
2019-02-17T20:31:16.181Z,101812.23
2019-02-17T20:33:47.796Z,101813.63
2019-02-17T20:36:19.326Z,101816.25
2019-02-17T20:38:50.846Z,101814.05
2019-02-17T20:41:22.342Z,101823.42
2019-02-17T20:43:54.043Z,101822.95
2019-02-17T20:46:25.595Z,101827.88
2019-02-17T20:48:57.191Z,101818.06
2019-02-17T20:51:28.756Z,101818.11
2019-02-17T20:54:00.333Z,101818.14
2019-02-17T20:56:31.922Z,101819.48
2019-02-17T20:59:03.492Z,101820.83
2019-02-17T21:01:35.136Z,101819.99
2019-02-17T21:04:06.670Z,101816.89
2019-02-17T21:06:38.304Z,101808.87
2019-02-17T21:09:14.752Z,101805.33
2019-02-17T21:11:47.777Z,101808.45
2019-02-17T21:14:19.310Z,101816.47
2019-02-17T21:16:50.937Z,101819.62
2019-02-17T21:19:22.550Z,101823.66
2019-02-17T21:21:54.058Z,101828.56
2019-02-17T21:24:25.610Z,101832.12
2019-02-17T21:26:57.658Z,101829.03
2019-02-17T21:29:29.190Z,101825.89
2019-02-17T21:32:00.861Z,101836.20
2019-02-17T21:34:33.339Z,101834.84
2019-02-17T21:37:04.866Z,101837.05
2019-02-17T21:39:36.370Z,101835.30
2019-02-17T21:42:07.895Z,101832.15
2019-02-17T21:44:39.445Z,101832.15
2019-02-17T21:47:10.979Z,101825.95
2019-02-17T21:49:42.515Z,101830.86
2019-02-17T21:52:14.019Z,101827.72
2019-02-17T21:54:45.552Z,101822.35
2019-02-17T21:57:17.080Z,101825.47
2019-02-17T21:59:49.558Z,101821.06
2019-02-17T22:02:21.108Z,101823.28
2019-02-17T22:04:52.669Z,101816.99
2019-02-17T22:07:24.184Z,101822.35
2019-02-17T22:09:55.882Z,101827.26
2019-02-17T22:12:27.387Z,101825.05
2019-02-17T22:14:58.909Z,101828.61
2019-02-17T22:17:30.446Z,101832.17
2019-02-17T22:20:01.980Z,101827.70
2019-02-17T22:22:33.651Z,101826.36
2019-02-17T22:25:07.372Z,101828.59
2019-02-17T22:27:38.888Z,101832.16
2019-02-17T22:30:12.976Z,101824.13
2019-02-17T22:32:44.580Z,101822.36
2019-02-17T22:35:16.095Z,101825.48
2019-02-17T22:37:47.630Z,101820.11
2019-02-17T22:40:19.145Z,101817.45
2019-02-17T22:42:50.732Z,101816.99
2019-02-17T22:45:22.325Z,101814.78
2019-02-17T22:47:53.847Z,101815.66
2019-02-17T22:50:25.434Z,101815.16
2019-02-17T22:52:57.028Z,101815.60
2019-02-17T22:55:28.622Z,101822.72
2019-02-17T22:58:00.123Z,101817.83
2019-02-17T23:00:45.905Z,101817.83
2019-02-17T23:03:17.583Z,101814.27
2019-02-17T23:05:49.123Z,101817.80
2019-02-17T23:08:20.620Z,101820.91
2019-02-17T23:10:52.224Z,101815.12
2019-02-17T23:13:23.884Z,101819.58
2019-02-17T23:15:56.375Z,101816.94
2019-02-17T23:18:28.037Z,101814.27
2019-02-17T23:20:59.553Z,101809.39
2019-02-17T23:23:31.151Z,101813.38
2019-02-17T23:26:02.743Z,101806.23
2019-02-17T23:28:34.266Z,101815.12
2019-02-17T23:31:05.782Z,101818.19
2019-02-17T23:33:37.298Z,101820.83
2019-02-17T23:36:09.897Z,101817.56
2019-02-17T23:38:41.478Z,101809.61
2019-02-17T23:41:13.027Z,101812.27
2019-02-17T23:43:44.606Z,101809.50
2019-02-17T23:46:16.230Z,101811.20
2019-02-17T23:48:47.741Z,101811.68
2019-02-17T23:51:19.257Z,101811.27
2019-02-17T23:53:50.790Z,101806.84
2019-02-17T23:56:22.291Z,101810.84
2019-02-17T23:58:53.806Z,101805.09
